• Join FlightAware (Why Join?)
  • Login
  • US Flag 
07:28AM EST


 

Airport Tracker/Info


-or-


 

Live Flight TrackerFlight Track Log ✈ RPA4907 ✈ 06-Jan-2014 ✈ KMCI - KDEN

Flight Track Log - Related Links

Times and Time Zones

All times are in EST time to prevent confusion due to time zone crossing. See the RPA4907 flight status page for this flight to view local times or setup timezone preferences in your user account.

Time Position Orientation Groundspeed Altitude Reporting Facility
EST Latitude Longitude Course Direction KTS MPH feet Rate Location/Type
03:06PM 39.3167 -94.7167 339° North 151 174 1,400  Level Kansas City TRACON
03:07PM 39.3500 -94.7333 339° North 173 199 3,500 2,760 Climbing Kansas City TRACON
03:08PM 39.3550 -94.8008 275° West 170 196 6,800 2,520 Climbing Kansas City Center
03:09PM 39.3406 -94.8608 253° West 182 209 9,200 2,280 Climbing Kansas City Center
03:10PM 39.3225 -94.9244 250° West 196 226 11,600 2,520 Climbing Kansas City Center
03:11PM 39.3003 -94.9989 249° West 198 228 14,400 2,460 Climbing Kansas City Center
03:12PM 39.2797 -95.0631 248° West 201 231 16,600 1,920 Climbing Kansas City Center
03:13PM 39.2539 -95.1314 244° Southwest 196 226 18,500 1,800 Climbing Kansas City Center
03:14PM 39.2294 -95.1972 244° Southwest 196 226 20,400 1,680 Climbing Kansas City Center
03:15PM 39.2050 -95.2628 244° Southwest 195 224 21,900 1,320 Climbing Kansas City Center
03:16PM 39.1814 -95.3256 244° Southwest 201 231 23,200 960 Climbing Kansas City Center
03:17PM 39.1725 -95.3944 261° West 192 221 24,000 360 Climbing Kansas City Center
03:18PM 39.1667 -95.4725 265° West 231 266 24,000  Level Kansas City Center
03:19PM 39.1569 -95.5633 262° West 262 302 24,000  Level Kansas City Center
03:20PM 39.1444 -95.6808 262° West 299 344 24,000  Level Kansas City Center
03:21PM 39.1389 -95.7847 266° West 303 349 24,000  Level Kansas City Center
03:22PM 39.1406 -95.9050 271° West 301 346 24,000  Level Kansas City Center
03:23PM 39.1403 -96.0106 270° West 306 352 24,000  Level Kansas City Center
03:24PM 39.1392 -96.1133 269° West 302 348 24,000  Level Kansas City Center
03:25PM 39.1383 -96.2333 270° West 301 346 24,000  Level Kansas City Center
03:26PM 39.1369 -96.3358 269° West 299 344 24,000  Level Kansas City Center
03:27PM 39.1353 -96.4561 269° West 300 345 24,000  Level Kansas City Center
03:28PM 39.1347 -96.5597 270° West 302 348 24,000  Level Kansas City Center
03:29PM 39.1328 -96.6811 269° West 304 350 24,000  Level Kansas City Center
03:30PM 39.1317 -96.7850 269° West 303 349 24,000  Level Kansas City Center
03:31PM 39.1300 -96.8886 269° West 302 348 24,000  Level Kansas City Center
03:32PM 39.1281 -97.0106 269° West 305 351 24,000  Level Kansas City Center
03:33PM 39.1261 -97.1142 269° West 302 348 24,000  Level Kansas City Center
03:34PM 39.1211 -97.2356 267° West 304 350 24,000  Level Kansas City Center
03:35PM 39.1194 -97.3375 269° West 299 344 24,000  Level Kansas City Center
03:36PM 39.1169 -97.4386 268° West 296 341 24,000  Level Kansas City Center
03:37PM 39.1144 -97.5564 268° West 295 339 24,000  Level Kansas City Center
03:39PM 39.1122 -97.6567 268° West 293 337 24,000  Level Kansas City Center
03:40PM 39.1094 -97.7733 268° West 292 336 24,000  Level Kansas City Center
03:41PM 39.1083 -97.8650 269° West 291 335 24,000  Level Kansas City Center
03:42PM 39.1069 -97.9628 269° West 279 321 24,000  Level Kansas City Center
03:43PM 39.1036 -98.0900 268° West 290 334 24,000  Level Kansas City Center
03:44PM 39.1003 -98.1936 268° West 293 337 24,000  Level Kansas City Center
03:45PM 39.0972 -98.2983 268° West 293 337 24,000  Level Kansas City Center
03:46PM 39.0939 -98.4006 268° West 289 333 24,000  Level Kansas City Center
03:47PM 39.0911 -98.5036 268° West 290 334 24,000  Level Kansas City Center
03:48PM 39.0878 -98.6061 268° West 288 331 24,000  Level Kansas City Center
03:49PM 39.0844 -98.7106 268° West 292 336 24,000  Level Kansas City Center
03:50PM 39.0794 -98.8358 267° West 293 337 24,000  Level Kansas City Center
03:51PM 39.0764 -98.9411 268° West 295 339 24,000  Level Kansas City Center
03:52PM 39.0719 -99.0444 267° West 291 335 24,000  Level Kansas City Center
03:53PM 39.0694 -99.1492 268° West 293 337 24,000  Level Kansas City Center
03:54PM 39.0664 -99.2533 268° West 293 337 24,000  Level Kansas City Center
03:55PM 39.0619 -99.3586 267° West 295 339 24,000  Level Kansas City Center
03:56PM 39.0581 -99.4647 267° West 295 339 24,000  Level Kansas City Center
03:57PM 39.0525 -99.5817 267° West 298 343 24,000  Level Kansas City Center
03:58PM 39.0475 -99.7006 267° West 299 344 24,000  Level Kansas City Center
03:59PM 39.0428 -99.8017 267° West 298 343 24,000  Level Kansas City Center
04:00PM 39.0372 -99.9017 266° West 302 348 24,000  Level Denver Center
04:01PM 39.0325 -100.0119 267° West 301 346 24,000  Level Denver Center
04:02PM 39.0283 -100.1147 267° West 300 345 24,000  Level Denver Center
04:03PM 39.0233 -100.2361 267° West 303 349 24,000  Level Denver Center
04:04PM 39.0183 -100.3383 266° West 301 346 24,000  Level Denver Center
04:05PM 39.0119 -100.4569 266° West 299 344 24,000  Level Denver Center
04:06PM 39.0072 -100.5614 267° West 303 349 24,000  Level Denver Center
04:07PM 39.0017 -100.6725 266° West 304 350 24,000  Level Denver Center
04:08PM 38.9958 -100.7919 266° West 302 348 24,000  Level Denver Center
04:09PM 38.9903 -100.8975 266° West 307 353 24,000  Level Denver Center
04:10PM 38.9842 -101.0200 266° West 309 356 24,000  Level Denver Center
04:11PM 38.9783 -101.1239 266° West 308 354 24,000  Level Denver Center
04:12PM 38.9731 -101.2294 266° West 309 356 24,000  Level Denver Center
04:13PM 38.9658 -101.3533 266° West 312 359 24,000  Level Denver Center
04:14PM 38.9603 -101.4592 266° West 312 359 24,000  Level Denver Center
04:15PM 38.9531 -101.5842 266° West 314 361 24,000  Level Denver Center
04:16PM 38.9467 -101.6900 266° West 312 359 24,000  Level Denver Center
04:17PM 38.9397 -101.8156 266° West 315 362 24,000  Level Denver Center
04:19PM 38.9331 -101.9211 265° West 311 358 24,000  Level Denver Center
04:20PM 38.9253 -102.0456 265° West 312 359 24,000  Level Denver Center
04:21PM 38.9192 -102.1517 266° West 312 359 24,000  Level Denver Center
04:22PM 38.9106 -102.2753 265° West 311 358 24,000  Level Denver Center
04:23PM 38.9044 -102.3806 266° West 311 358 24,000  Level Denver Center
04:24PM 38.8969 -102.4867 265° West 312 359 24,000  Level Denver Center
04:25PM 38.8892 -102.6086 265° West 309 356 24,000  Level Denver Center
04:26PM 38.8819 -102.7153 265° West 312 359 24,000  Level Denver Center
04:27PM 38.9078 -102.8231 287° West 293 337 24,000  Level Denver Center
04:28PM 38.9375 -102.9214 291° West 296 341 24,000  Level Denver Center
04:29PM 38.9642 -103.0208 289° West 296 341 24,000  Level Denver Center
04:30PM 38.9917 -103.1189 290° West 293 337 24,000  Level Denver Center
04:31PM 39.0236 -103.2383 289° West 294 338 24,000  Level Denver Center
04:32PM 39.0514 -103.3367 290° West 293 337 24,000  Level Denver Center
04:33PM 39.0778 -103.4372 289° West 296 341 24,000 -720 Level Denver Center
04:34PM 39.1050 -103.5397 289° West 301 346 22,600 -1,560 Descending Denver Center
04:35PM 39.1322 -103.6444 289° West 308 354 20,800 -1,860 Descending Denver Center
04:36PM 39.1611 -103.7511 289° West 315 362 18,900 -1,980 Descending Denver Center
04:38PM 39.2167 -103.9500 290° West 311 358 15,400 -1,920 Descending Denver TRACON
04:39PM 39.2500 -104.0500 293° West 292 336 13,700 -1,200 Descending Denver TRACON
04:40PM 39.2833 -104.1500 293° West 261 300 13,000 -420 Descending Denver TRACON
04:41PM 39.2833 -104.2500 270° West 275 316 12,900 -540 Descending Denver TRACON
04:42PM 39.3000 -104.3333 285° West 238 274 12,000 -1,260 Descending Denver TRACON
04:43PM 39.3167 -104.4000 288° West 223 257 10,400 -1,080 Descending Denver TRACON
04:44PM 39.3500 -104.4500 311° West 209 241 9,900 -300 Descending Denver TRACON
04:45PM 39.4167 -104.4833 339° North 223 257 9,900 -240 Level Denver TRACON
04:46PM 39.4667 -104.5167 333° Northwest 214 246 9,500 -540 Descending Denver TRACON
04:47PM 39.5333 -104.5500 339° North 213 245 8,900 -300 Descending Denver TRACON
04:48PM 39.5833 -104.5833 333° Northwest 215 247 8,900 -60 Level Denver TRACON
04:49PM 39.6333 -104.6167 333° Northwest 217 250 8,800 -180 Descending Denver TRACON
04:49PM 39.6603 -104.6286 341° North 222 255 8,700 -780 Descending Denver Center
04:50PM 39.7217 -104.6419 351° North 201 231 7,600 -1,020 Descending Denver Center
04:52PM 39.7753 -104.6428 359° North 193 222 6,600 -960 Descending Denver Center
04:53PM 39.8197 -104.6422 North 157 181 5,700 -600 Descending Denver Center
04:54PM 39.8503 -104.6411 North 122 140 5,400 -300 Descending Denver Center
04:56PM 39.8500 -104.6667 339° North  Level FlightAware Approximate
05:03PM 39.8617 -104.6732 339° North  Level Estimated